sensor_id;sensor_type;location;lat;lon;timestamp;pressure;altitude;pressure_sealevel;temperature;humidity
54503;BME280;40411;50.090;21.954;2023-08-06T00:00:09;-4028.78;;;23.28;100.00
54503;BME280;40411;50.090;21.954;2023-08-06T00:02:55;-4028.81;;;23.36;100.00
54503;BME280;40411;50.090;21.954;2023-08-06T00:05:21;-4028.78;;;23.31;100.00
54503;BME280;40411;50.090;21.954;2023-08-06T00:07:48;-4028.78;;;23.28;100.00
54503;BME280;40411;50.090;21.954;2023-08-06T00:10:14;-4028.78;;;23.29;100.00
54503;BME280;40411;50.090;21.954;2023-08-06T00:12:40;-3693.84;;;23.09;100.00
54503;BME280;40411;50.090;21.954;2023-08-06T00:15:06;-3693.84;;;23.07;100.00
54503;BME280;40411;50.090;21.954;2023-08-06T00:17:33;-2689.84;;;22.62;100.00
54503;BME280;40411;50.090;21.954;2023-08-06T00:19:59;-2022.25;;;21.93;100.00
54503;BME280;40411;50.090;21.954;2023-08-06T00:22:37;-2022.22;;;21.95;100.00
54503;BME280;40411;50.090;21.954;2023-08-06T00:25:03;-2022.38;;;21.90;100.00
54503;BME280;40411;50.090;21.954;2023-08-06T00:27:29;-2356.56;;;22.00;100.00
54503;BME280;40411;50.090;21.954;2023-08-06T00:29:55;-2356.13;;;22.18;100.00
54503;BME280;40411;50.090;21.954;2023-08-06T00:32:22;-2690.50;;;22.28;100.00
54503;BME280;40411;50.090;21.954;2023-08-06T00:34:47;-3359.28;;;22.67;100.00
54503;BME280;40411;50.090;21.954;2023-08-06T00:37:16;-2356.38;;;22.08;100.00
54503;BME280;40411;50.090;21.954;2023-08-06T00:39:43;-2022.56;;;21.83;100.00
54503;BME280;40411;50.090;21.954;2023-08-06T00:42:10;-2022.69;;;21.79;100.00
54503;BME280;40411;50.090;21.954;2023-08-06T00:44:36;-1688.44;;;21.74;100.00
54503;BME280;40411;50.090;21.954;2023-08-06T00:47:03;-2356.69;;;21.94;100.00
54503;BME280;40411;50.090;21.954;2023-08-06T00:49:29;-2356.66;;;21.96;100.00
54503;BME280;40411;50.090;21.954;2023-08-06T00:51:56;-2356.56;;;21.99;100.00
54503;BME280;40411;50.090;21.954;2023-08-06T00:54:23;-2356.41;;;22.06;100.00
54503;BME280;40411;50.090;21.954;2023-08-06T00:56:50;-2022.09;;;21.99;100.00
54503;BME280;40411;50.090;21.954;2023-08-06T00:59:16;-3359.25;;;22.71;100.00
54503;BME280;40411;50.090;21.954;2023-08-06T01:01:42;-3693.91;;;22.92;100.00
54503;BME280;40411;50.090;21.954;2023-08-06T01:04:10;-3359.22;;;22.73;100.00
54503;BME280;40411;50.090;21.954;2023-08-06T01:06:45;-3359.16;;;22.81;100.00
54503;BME280;40411;50.090;21.954;2023-08-06T01:09:39;-3358.97;;;23.02;100.00
54503;BME280;40411;50.090;21.954;2023-08-06T01:12:34;-3024.28;;;22.84;100.00
54503;BME280;40411;50.090;21.954;2023-08-06T01:15:27;-3024.06;;;23.00;100.00
54503;BME280;40411;50.090;21.954;2023-08-06T01:17:55;-3358.91;;;23.08;100.00
54503;BME280;40411;50.090;21.954;2023-08-06T01:20:21;-3693.78;;;23.26;100.00
54503;BME280;40411;50.090;21.954;2023-08-06T01:22:47;-3358.78;;;23.22;100.00
54503;BME280;40411;50.090;21.954;2023-08-06T01:25:15;-3024.13;;;22.94;100.00
54503;BME280;40411;50.090;21.954;2023-08-06T01:27:49;-3358.91;;;23.10;100.00
54503;BME280;40411;50.090;21.954;2023-08-06T01:30:22;-3024.06;;;23.00;100.00
54503;BME280;40411;50.090;21.954;2023-08-06T01:32:56;-3023.97;;;23.05;100.00
54503;BME280;40411;50.090;21.954;2023-08-06T01:35:27;-2689.28;;;22.90;100.00
54503;BME280;40411;50.090;21.954;2023-08-06T01:37:54;-3024.06;;;23.00;100.00
54503;BME280;40411;50.090;21.954;2023-08-06T01:40:22;-3024.13;;;22.95;100.00
54503;BME280;40411;50.090;21.954;2023-08-06T01:42:48;-3024.00;;;23.04;100.00
54503;BME280;40411;50.090;21.954;2023-08-06T01:45:14;-2689.47;;;22.82;100.00
54503;BME280;40411;50.090;21.954;2023-08-06T01:47:40;-3024.03;;;23.02;100.00
54503;BME280;40411;50.090;21.954;2023-08-06T01:50:06;-3024.06;;;22.99;100.00
54503;BME280;40411;50.090;21.954;2023-08-06T01:52:32;-3358.78;;;23.23;100.00
54503;BME280;40411;50.090;21.954;2023-08-06T01:54:58;-3024.03;;;23.01;100.00
54503;BME280;40411;50.090;21.954;2023-08-06T01:57:24;-2689.09;;;23.00;100.00
54503;BME280;40411;50.090;21.954;2023-08-06T01:59:50;-1686.16;;;22.40;100.00
54503;BME280;40411;50.090;21.954;2023-08-06T02:02:15;-3024.03;;;23.03;100.00
54503;BME280;40411;50.090;21.954;2023-08-06T02:04:41;-2689.13;;;22.99;100.00
54503;BME280;40411;50.090;21.954;2023-08-06T02:07:07;-2689.38;;;22.86;100.00
54503;BME280;40411;50.090;21.954;2023-08-06T02:09:33;-2689.41;;;22.84;100.00
54503;BME280;40411;50.090;21.954;2023-08-06T02:12:01;-2689.47;;;22.81;100.00
54503;BME280;40411;50.090;21.954;2023-08-06T02:14:28;-2689.53;;;22.77;100.00
54503;BME280;40411;50.090;21.954;2023-08-06T02:16:54;-2689.41;;;22.85;100.00
54503;BME280;40411;50.090;21.954;2023-08-06T02:19:19;-2689.41;;;22.84;100.00
54503;BME280;40411;50.090;21.954;2023-08-06T02:21:46;-2689.44;;;22.83;100.00
54503;BME280;40411;50.090;21.954;2023-08-06T02:24:11;-2354.75;;;22.74;100.00
54503;BME280;40411;50.090;21.954;2023-08-06T02:26:37;-2355.06;;;22.61;100.00
54503;BME280;40411;50.090;21.954;2023-08-06T02:29:03;-2020.56;;;22.51;100.00
54503;BME280;40411;50.090;21.954;2023-08-06T02:31:29;-2021.00;;;22.36;100.00
54503;BME280;40411;50.090;21.954;2023-08-06T02:33:55;-2021.00;;;22.36;100.00
54503;BME280;40411;50.090;21.954;2023-08-06T02:36:21;-2355.34;;;22.49;100.00
54503;BME280;40411;50.090;21.954;2023-08-06T02:38:46;-2355.06;;;22.62;100.00
54503;BME280;40411;50.090;21.954;2023-08-06T02:41:12;-2354.97;;;22.65;100.00
54503;BME280;40411;50.090;21.954;2023-08-06T02:43:38;-2020.88;;;22.40;100.00
54503;BME280;40411;50.090;21.954;2023-08-06T02:46:04;-2020.97;;;22.37;100.00
54503;BME280;40411;50.090;21.954;2023-08-06T02:48:30;-2355.41;;;22.48;100.00
54503;BME280;40411;50.090;21.954;2023-08-06T02:50:58;-2355.22;;;22.55;100.00
54503;BME280;40411;50.090;21.954;2023-08-06T02:53:25;-2355.22;;;22.56;100.00
54503;BME280;40411;50.090;21.954;2023-08-06T02:55:51;-2355.31;;;22.51;100.00
54503;BME280;40411;50.090;21.954;2023-08-06T02:58:21;-2021.41;;;22.22;100.00
54503;BME280;40411;50.090;21.954;2023-08-06T03:01:10;-2355.66;;;22.38;100.00
54503;BME280;40411;50.090;21.954;2023-08-06T03:03:44;-2355.63;;;22.39;100.00
54503;BME280;40411;50.090;21.954;2023-08-06T03:06:11;-2689.66;;;22.71;100.00
54503;BME280;40411;50.090;21.954;2023-08-06T03:08:43;-2355.31;;;22.51;100.00
54503;BME280;40411;50.090;21.954;2023-08-06T03:11:09;-2355.34;;;22.50;100.00
54503;BME280;40411;50.090;21.954;2023-08-06T03:13:34;-2689.84;;;22.62;100.00
54503;BME280;40411;50.090;21.954;2023-08-06T03:16:01;-2689.69;;;22.69;100.00
54503;BME280;40411;50.090;21.954;2023-08-06T03:18:28;-2355.66;;;22.37;100.00
54503;BME280;40411;50.090;21.954;2023-08-06T03:20:57;-2690.06;;;22.51;100.00
54503;BME280;40411;50.090;21.954;2023-08-06T03:23:26;-3024.50;;;22.68;100.00
54503;BME280;40411;50.090;21.954;2023-08-06T03:25:53;-3359.16;;;22.82;100.00
54503;BME280;40411;50.090;21.954;2023-08-06T03:28:19;-3024.25;;;22.87;100.00
54503;BME280;40411;50.090;21.954;2023-08-06T03:30:46;-3693.84;;;23.14;100.00
54503;BME280;40411;50.090;21.954;2023-08-06T03:33:12;-3693.84;;;23.13;100.00
54503;BME280;40411;50.090;21.954;2023-08-06T03:35:38;-3693.88;;;23.05;100.00
54503;BME280;40411;50.090;21.954;2023-08-06T03:38:04;-3024.44;;;22.73;100.00
54503;BME280;40411;50.090;21.954;2023-08-06T03:40:30;-3359.09;;;22.88;100.00
54503;BME280;40411;50.090;21.954;2023-08-06T03:42:58;-4028.78;;;23.23;100.00
54503;BME280;40411;50.090;21.954;2023-08-06T03:45:24;-4028.81;;;23.38;100.00
54503;BME280;40411;50.090;21.954;2023-08-06T03:47:50;-4363.91;;;23.47;100.00
54503;BME280;40411;50.090;21.954;2023-08-06T03:50:17;-3693.84;;;23.13;100.00
54503;BME280;40411;50.090;21.954;2023-08-06T03:52:43;-4363.91;;;23.48;100.00
54503;BME280;40411;50.090;21.954;2023-08-06T03:55:10;-3693.84;;;23.10;100.00
54503;BME280;40411;50.090;21.954;2023-08-06T03:57:36;-4028.78;;;23.23;100.00
54503;BME280;40411;50.090;21.954;2023-08-06T04:00:03;-3359.06;;;22.92;100.00
54503;BME280;40411;50.090;21.954;2023-08-06T04:02:47;-3359.03;;;22.93;100.00
54503;BME280;40411;50.090;21.954;2023-08-06T04:05:14;-2689.88;;;22.61;100.00
54503;BME280;40411;50.090;21.954;2023-08-06T04:07:39;-4028.78;;;23.14;100.00
54503;BME280;40411;50.090;21.954;2023-08-06T04:10:05;-3693.88;;;23.03;100.00
54503;BME280;40411;50.090;21.954;2023-08-06T04:12:31;-3693.84;;;23.11;100.00
54503;BME280;40411;50.090;21.954;2023-08-06T04:15:02;-3693.84;;;23.10;100.00
54503;BME280;40411;50.090;21.954;2023-08-06T04:17:29;-4028.78;;;23.25;100.00
54503;BME280;40411;50.090;21.954;2023-08-06T04:19:55;-4363.84;;;23.38;100.00
54503;BME280;40411;50.090;21.954;2023-08-06T04:22:23;-4363.91;;;23.49;100.00
54503;BME280;40411;50.090;21.954;2023-08-06T04:24:49;-4363.91;;;23.48;100.00
54503;BME280;40411;50.090;21.954;2023-08-06T04:27:16;-4363.94;;;23.52;100.00
54503;BME280;40411;50.090;21.954;2023-08-06T04:29:43;-3693.81;;;23.15;100.00
54503;BME280;40411;50.090;21.954;2023-08-06T04:32:10;-4028.78;;;23.24;100.00
54503;BME280;40411;50.090;21.954;2023-08-06T04:34:40;-4363.88;;;23.44;100.00
54503;BME280;40411;50.090;21.954;2023-08-06T04:37:07;-3693.88;;;23.05;100.00
54503;BME280;40411;50.090;21.954;2023-08-06T04:39:32;-4363.84;;;23.40;100.00
54503;BME280;40411;50.090;21.954;2023-08-06T04:41:59;-4028.78;;;23.25;100.00
54503;BME280;40411;50.090;21.954;2023-08-06T04:44:25;-4363.88;;;23.42;100.00
54503;BME280;40411;50.090;21.954;2023-08-06T04:46:51;-4028.78;;;23.28;100.00
54503;BME280;40411;50.090;21.954;2023-08-06T04:49:19;-4363.97;;;23.58;100.00
54503;BME280;40411;50.090;21.954;2023-08-06T04:51:45;-4028.81;;;23.33;100.00
54503;BME280;40411;50.090;21.954;2023-08-06T04:54:11;-4028.78;;;23.28;100.00
54503;BME280;40411;50.090;21.954;2023-08-06T04:56:37;-4363.94;;;23.52;100.00
54503;BME280;40411;50.090;21.954;2023-08-06T04:59:02;-4028.78;;;23.24;100.00
54503;BME280;40411;50.090;21.954;2023-08-06T05:01:28;-4363.88;;;23.41;100.00
54503;BME280;40411;50.090;21.954;2023-08-06T05:03:54;-4363.94;;;23.54;100.00
54503;BME280;40411;50.090;21.954;2023-08-06T05:06:20;-5034.47;;;23.76;100.00
54503;BME280;40411;50.090;21.954;2023-08-06T05:08:46;-4699.22;;;23.71;100.00
54503;BME280;40411;50.090;21.954;2023-08-06T05:11:12;-4363.91;;;23.47;100.00
54503;BME280;40411;50.090;21.954;2023-08-06T05:13:37;-5034.56;;;23.81;100.00
54503;BME280;40411;50.090;21.954;2023-08-06T05:16:03;-5034.97;;;24.05;100.00
54503;BME280;40411;50.090;21.954;2023-08-06T05:18:29;-5706.13;;;24.27;100.00
54503;BME280;40411;50.090;21.954;2023-08-06T05:20:56;-5706.66;;;24.47;100.00
54503;BME280;40411;50.090;21.954;2023-08-06T05:23:22;-5706.84;;;24.55;100.00
54503;BME280;40411;50.090;21.954;2023-08-06T05:25:48;-5371.19;;;24.48;100.00
54503;BME280;40411;50.090;21.954;2023-08-06T05:28:14;-5707.16;;;24.66;100.00
54503;BME280;40411;50.090;21.954;2023-08-06T05:30:40;-5707.25;;;24.70;100.00
54503;BME280;40411;50.090;21.954;2023-08-06T05:33:06;-5370.97;;;24.38;100.00
54503;BME280;40411;50.090;21.954;2023-08-06T05:35:32;-5371.47;;;24.61;100.00
54503;BME280;40411;50.090;21.954;2023-08-06T05:37:58;-5035.66;;;24.47;100.00
54503;BME280;40411;50.090;21.954;2023-08-06T05:40:24;-5035.59;;;24.44;100.00
54503;BME280;40411;50.090;21.954;2023-08-06T05:42:53;-6043.47;;;24.89;100.00
54503;BME280;40411;50.090;21.954;2023-08-06T05:45:19;-5707.59;;;24.82;100.00
54503;BME280;40411;50.090;21.954;2023-08-06T05:47:45;-5707.69;;;24.85;100.00
54503;BME280;40411;50.090;21.954;2023-08-06T05:50:13;-5707.69;;;24.85;100.00
54503;BME280;40411;50.090;21.954;2023-08-06T05:52:38;-5371.69;;;24.71;100.00
54503;BME280;40411;50.090;21.954;2023-08-06T05:55:05;-5707.72;;;24.87;100.00
54503;BME280;40411;50.090;21.954;2023-08-06T05:57:31;-6043.88;;;25.03;100.00
54503;BME280;40411;50.090;21.954;2023-08-06T05:59:57;-6716.75;;;25.37;100.00
54503;BME280;40411;50.090;21.954;2023-08-06T06:02:22;-6716.97;;;25.42;100.00
54503;BME280;40411;50.090;21.954;2023-08-06T06:04:48;-6716.94;;;25.41;100.00
54503;BME280;40411;50.090;21.954;2023-08-06T06:07:14;-7390.63;;;25.79;100.00
54503;BME280;40411;50.090;21.954;2023-08-06T06:09:40;-7055.09;;;25.90;100.00
54503;BME280;40411;50.090;21.954;2023-08-06T06:12:06;-7055.13;;;25.91;100.00
54503;BME280;40411;50.090;21.954;2023-08-06T06:14:32;-7728.91;;;26.19;100.00
54503;BME280;40411;50.090;21.954;2023-08-06T06:16:59;-8067.78;;;26.62;100.00
54503;BME280;40411;50.090;21.954;2023-08-06T06:19:25;-8743.25;;;27.00;100.00
54503;BME280;40411;50.090;21.954;2023-08-06T06:21:51;-8743.53;;;27.04;100.00
54503;BME280;40411;50.090;21.954;2023-08-06T06:24:18;-8405.66;;;26.85;100.00
54503;BME280;40411;50.090;21.954;2023-08-06T06:26:44;-9420.13;;;27.47;100.00
54503;BME280;40411;50.090;21.954;2023-08-06T06:29:10;-8744.88;;;27.23;98.85
54503;BME280;40411;50.090;21.954;2023-08-06T06:31:36;-9422.25;;;27.73;98.36
54503;BME280;40411;50.090;21.954;2023-08-06T06:34:02;-8745.25;;;27.28;99.50
54503;BME280;40411;50.090;21.954;2023-08-06T06:36:27;-9084.19;;;27.57;96.97
54503;BME280;40411;50.090;21.954;2023-08-06T06:38:53;-8746.94;;;27.51;96.47
54503;BME280;40411;50.090;21.954;2023-08-06T06:41:19;-8410.56;;;27.58;93.98
54503;BME280;40411;50.090;21.954;2023-08-06T06:43:45;-8747.72;;;27.62;94.74
54503;BME280;40411;50.090;21.954;2023-08-06T06:46:10;-6720.72;;;26.32;99.44
54503;BME280;40411;50.090;21.954;2023-08-06T06:48:36;-7395.63;;;26.76;99.77
54503;BME280;40411;50.090;21.954;2023-08-06T06:51:02;-7734.81;;;27.23;94.64
54503;BME280;40411;50.090;21.954;2023-08-06T06:53:28;-9425.72;;;28.15;92.25
54503;BME280;40411;50.090;21.954;2023-08-06T06:55:55;-10441.38;;;28.62;93.69
54503;BME280;40411;50.090;21.954;2023-08-06T06:58:21;-9429.44;;;28.60;88.29
54503;BME280;40411;50.090;21.954;2023-08-06T07:00:47;-9767.06;;;28.64;89.37
54503;BME280;40411;50.090;21.954;2023-08-06T07:03:15;-10106.94;;;28.92;88.46
54503;BME280;40411;50.090;21.954;2023-08-06T07:05:41;-9772.75;;;29.29;83.22
54503;BME280;40411;50.090;21.954;2023-08-06T07:08:07;-10451.50;;;29.66;83.92
54503;BME280;40411;50.090;21.954;2023-08-06T07:10:33;-8761.19;;;29.50;77.19
54503;BME280;40411;50.090;21.954;2023-08-06T07:12:59;-7746.06;;;29.23;75.97
54503;BME280;40411;50.090;21.954;2023-08-06T07:15:24;-8423.47;;;29.52;76.50
54503;BME280;40411;50.090;21.954;2023-08-06T07:17:50;-9108.84;;;30.79;70.23
54503;BME280;40411;50.090;21.954;2023-08-06T07:20:16;-9451.44;;;31.30;67.66
54503;BME280;40411;50.090;21.954;2023-08-06T07:22:42;-10479.03;;;32.51;63.90
54503;BME280;40411;50.090;21.954;2023-08-06T07:25:08;-8775.59;;;31.53;66.31
54503;BME280;40411;50.090;21.954;2023-08-06T07:27:34;-9115.78;;;31.71;66.33
54503;BME280;40411;50.090;21.954;2023-08-06T07:30:00;-9116.75;;;31.83;66.39
54503;BME280;40411;50.090;21.954;2023-08-06T07:32:26;-10143.88;;;32.96;61.98
54503;BME280;40411;50.090;21.954;2023-08-06T07:34:53;-8098.84;;;31.72;64.50
54503;BME280;40411;50.090;21.954;2023-08-06T07:37:23;-8779.84;;;32.14;63.10
54503;BME280;40411;50.090;21.954;2023-08-06T07:39:50;-9463.69;;;32.82;62.03
54503;BME280;40411;50.090;21.954;2023-08-06T07:42:17;-9806.22;;;33.18;60.14
54503;BME280;40411;50.090;21.954;2023-08-06T07:44:54;-8781.09;;;32.32;63.43
54503;BME280;40411;50.090;21.954;2023-08-06T07:47:21;-9464.50;;;32.92;61.29
54503;BME280;40411;50.090;21.954;2023-08-06T07:49:47;-9809.44;;;33.56;58.89
54503;BME280;40411;50.090;21.954;2023-08-06T07:52:14;-9468.94;;;33.48;58.30
54503;BME280;40411;50.090;21.954;2023-08-06T07:54:40;-7080.59;;;31.50;66.15
54503;BME280;40411;50.090;21.954;2023-08-06T07:57:06;-5043.31;;;29.56;73.43
54503;BME280;40411;50.090;21.954;2023-08-06T07:59:32;-5719.28;;;29.40;76.29
54503;BME280;40411;50.090;21.954;2023-08-06T08:01:58;-6735.91;;;30.06;72.78
54503;BME280;40411;50.090;21.954;2023-08-06T08:04:24;-6738.81;;;30.80;67.00
54503;BME280;40411;50.090;21.954;2023-08-06T08:06:50;-7080.75;;;31.53;62.62
54503;BME280;40411;50.090;21.954;2023-08-06T08:09:16;-7081.91;;;31.79;62.28
54503;BME280;40411;50.090;21.954;2023-08-06T08:11:42;-6742.25;;;31.68;62.06
54503;BME280;40411;50.090;21.954;2023-08-06T08:14:08;-7764.72;;;32.63;58.56
54503;BME280;40411;50.090;21.954;2023-08-06T08:16:34;-7764.44;;;32.57;59.84
54503;BME280;40411;50.090;21.954;2023-08-06T08:19:00;-7423.34;;;32.26;60.90
54503;BME280;40411;50.090;21.954;2023-08-06T08:21:26;-7084.22;;;32.32;59.76
54503;BME280;40411;50.090;21.954;2023-08-06T08:23:52;-6404.13;;;31.98;60.50
54503;BME280;40411;50.090;21.954;2023-08-06T08:26:18;-7767.09;;;33.07;57.57
54503;BME280;40411;50.090;21.954;2023-08-06T08:28:43;-6404.53;;;32.11;60.05
54503;BME280;40411;50.090;21.954;2023-08-06T08:31:10;-4706.34;;;31.04;62.56
54503;BME280;40411;50.090;21.954;2023-08-06T08:33:40;-6403.47;;;31.79;61.00
54503;BME280;40411;50.090;21.954;2023-08-06T08:36:06;-6404.44;;;32.08;60.98
54503;BME280;40411;50.090;21.954;2023-08-06T08:38:32;-4367.25;;;30.81;63.05
54503;BME280;40411;50.090;21.954;2023-08-06T08:40:58;-2674.31;;;29.97;64.09
54503;BME280;40411;50.090;21.954;2023-08-06T08:43:23;-3013.09;;;29.87;65.90
54503;BME280;40411;50.090;21.954;2023-08-06T08:45:51;-3351.13;;;30.24;63.81
54503;BME280;40411;50.090;21.954;2023-08-06T08:48:17;-6064.44;;;31.87;59.93
54503;BME280;40411;50.090;21.954;2023-08-06T08:50:45;-8110.13;;;33.62;55.32
54503;BME280;40411;50.090;21.954;2023-08-06T08:53:12;-5726.91;;;32.65;55.04
54503;BME280;40411;50.090;21.954;2023-08-06T08:55:43;-5046.47;;;31.93;58.19
54503;BME280;40411;50.090;21.954;2023-08-06T08:58:09;-3012.25;;;30.34;64.07
54503;BME280;40411;50.090;21.954;2023-08-06T09:00:36;-2674.81;;;29.75;66.88
54503;BME280;40411;50.090;21.954;2023-08-06T09:03:06;-2675.16;;;29.60;67.30
54503;BME280;40411;50.090;21.954;2023-08-06T09:05:32;-4367.22;;;30.65;64.41
54503;BME280;40411;50.090;21.954;2023-08-06T09:08:04;-5046.34;;;31.83;59.70
54503;BME280;40411;50.090;21.954;2023-08-06T09:10:31;-4028.41;;;30.60;64.85
54503;BME280;40411;50.090;21.954;2023-08-06T09:12:57;-2336.22;;;29.78;66.70
54503;BME280;40411;50.090;21.954;2023-08-06T09:15:24;-1661.72;;;29.09;70.04
54503;BME280;40411;50.090;21.954;2023-08-06T09:17:52;-4367.19;;;30.54;66.73
54503;BME280;40411;50.090;21.954;2023-08-06T09:20:18;-4706.06;;;30.69;65.72
54503;BME280;40411;50.090;21.954;2023-08-06T09:22:44;-4706.25;;;30.92;64.95
54503;BME280;40411;50.090;21.954;2023-08-06T09:25:11;-4706.16;;;30.82;66.26
54503;BME280;40411;50.090;21.954;2023-08-06T09:27:39;-5384.34;;;31.08;65.45
54503;BME280;40411;50.090;21.954;2023-08-06T09:30:06;-3351.72;;;29.77;69.56
54503;BME280;40411;50.090;21.954;2023-08-06T09:32:46;-2337.59;;;29.29;70.26
54503;BME280;40411;50.090;21.954;2023-08-06T09:35:22;-2337.69;;;29.25;69.69
54503;BME280;40411;50.090;21.954;2023-08-06T09:37:48;-3351.69;;;29.79;68.16
54503;BME280;40411;50.090;21.954;2023-08-06T09:40:30;-4028.44;;;30.36;67.34
54503;BME280;40411;50.090;21.954;2023-08-06T09:42:56;-2337.31;;;29.38;69.21
54503;BME280;40411;50.090;21.954;2023-08-06T09:45:24;-1661.34;;;29.19;68.35
54503;BME280;40411;50.090;21.954;2023-08-06T09:47:57;-2336.66;;;29.63;67.40
54503;BME280;40411;50.090;21.954;2023-08-06T09:50:28;-3013.50;;;29.63;70.60
54503;BME280;40411;50.090;21.954;2023-08-06T09:52:54;-3013.03;;;29.90;66.33
54503;BME280;40411;50.090;21.954;2023-08-06T09:55:21;-3350.84;;;30.48;62.37
54503;BME280;40411;50.090;21.954;2023-08-06T09:57:47;-3012.56;;;30.16;65.47
54503;BME280;40411;50.090;21.954;2023-08-06T10:00:14;-1998.22;;;29.61;65.98
54503;BME280;40411;50.090;21.954;2023-08-06T10:02:43;-3689.69;;;30.43;64.60
54503;BME280;40411;50.090;21.954;2023-08-06T10:05:10;-1322.38;;;29.34;66.50
54503;BME280;40411;50.090;21.954;2023-08-06T10:07:36;-1998.41;;;29.55;66.60
54503;BME280;40411;50.090;21.954;2023-08-06T10:10:06;-1998.44;;;29.55;66.80
54503;BME280;40411;50.090;21.954;2023-08-06T10:12:35;-3012.63;;;30.14;65.66
54503;BME280;40411;50.090;21.954;2023-08-06T10:15:06;-1997.69;;;29.77;64.58
54503;BME280;40411;50.090;21.954;2023-08-06T10:17:34;-3689.53;;;30.62;64.33
54503;BME280;40411;50.090;21.954;2023-08-06T10:20:04;-647.75;;;28.92;68.52
54503;BME280;40411;50.090;21.954;2023-08-06T10:22:33;-648.47;;;28.79;69.37
54503;BME280;40411;50.090;21.954;2023-08-06T10:25:00;28.47;;;28.87;66.29
54503;BME280;40411;50.090;21.954;2023-08-06T10:27:40;1039.03;;;28.32;68.42
54503;BME280;40411;50.090;21.954;2023-08-06T10:30:33;-310.03;;;28.83;68.19
54503;BME280;40411;50.090;21.954;2023-08-06T10:33:03;1713.13;;;28.09;67.33
54503;BME280;40411;50.090;21.954;2023-08-06T10:35:46;3057.88;;;27.40;69.65
54503;BME280;40411;50.090;21.954;2023-08-06T10:38:17;3394.91;;;27.34;69.19
54503;BME280;40411;50.090;21.954;2023-08-06T10:43:35;2384.22;;;27.59;70.53
54503;BME280;40411;50.090;21.954;2023-08-06T10:46:09;3730.59;;;27.16;70.70
54503;BME280;40411;50.090;21.954;2023-08-06T10:48:37;2719.00;;;27.30;72.52
54503;BME280;40411;50.090;21.954;2023-08-06T10:51:07;3730.59;;;27.16;69.46
54503;BME280;40411;50.090;21.954;2023-08-06T10:53:32;4064.69;;;26.88;70.81
54503;BME280;40411;50.090;21.954;2023-08-06T10:55:58;-309.84;;;28.86;67.78
54503;BME280;40411;50.090;21.954;2023-08-06T10:58:24;-1659.03;;;29.79;63.80
54503;BME280;40411;50.090;21.954;2023-08-06T11:00:50;30.75;;;29.23;62.61
54503;BME280;40411;50.090;21.954;2023-08-06T11:03:17;1378.81;;;28.52;64.95
54503;BME280;40411;50.090;21.954;2023-08-06T11:05:49;-643.78;;;29.66;62.33
54503;BME280;40411;50.090;21.954;2023-08-06T11:08:34;1041.88;;;28.68;64.78
54503;BME280;40411;50.090;21.954;2023-08-06T11:11:14;1041.72;;;28.66;65.66
54503;BME280;40411;50.090;21.954;2023-08-06T11:13:42;702.81;;;28.57;68.09
54503;BME280;40411;50.090;21.954;2023-08-06T11:16:09;1039.28;;;28.35;67.44
54503;BME280;40411;50.090;21.954;2023-08-06T11:18:35;-984.28;;;29.27;66.45
54503;BME280;40411;50.090;21.954;2023-08-06T11:21:01;-645.75;;;29.30;64.89
54503;BME280;40411;50.090;21.954;2023-08-06T11:23:28;-307.84;;;29.20;64.43
54503;BME280;40411;50.090;21.954;2023-08-06T11:25:57;-1320.09;;;29.86;63.27
54503;BME280;40411;50.090;21.954;2023-08-06T11:28:24;-645.28;;;29.38;64.70
54503;BME280;40411;50.090;21.954;2023-08-06T11:30:51;-1658.81;;;29.84;63.70
54503;BME280;40411;50.090;21.954;2023-08-06T11:33:23;-2335.25;;;30.12;64.10
54503;BME280;40411;50.090;21.954;2023-08-06T11:35:55;-1996.19;;;30.22;62.73
54503;BME280;40411;50.090;21.954;2023-08-06T11:38:21;-3689.34;;;30.87;62.85
54503;BME280;40411;50.090;21.954;2023-08-06T11:40:48;-2672.75;;;30.65;60.38
54503;BME280;40411;50.090;21.954;2023-08-06T11:43:14;-1318.31;;;30.26;59.46
54503;BME280;40411;50.090;21.954;2023-08-06T11:45:40;-1317.88;;;30.37;60.17
54503;BME280;40411;50.090;21.954;2023-08-06T11:48:07;-1317.94;;;30.36;59.04
54503;BME280;40411;50.090;21.954;2023-08-06T11:50:37;-1655.28;;;30.76;57.21
54503;BME280;40411;50.090;21.954;2023-08-06T11:53:04;-303.34;;;29.96;60.20
54503;BME280;40411;50.090;21.954;2023-08-06T11:55:31;710.84;;;29.64;59.03
54503;BME280;40411;50.090;21.954;2023-08-06T11:57:57;371.03;;;29.49;61.25
54503;BME280;40411;50.090;21.954;2023-08-06T12:00:24;-304.53;;;29.76;61.58
54503;BME280;40411;50.090;21.954;2023-08-06T12:02:51;-978.91;;;30.37;58.74
54503;BME280;40411;50.090;21.954;2023-08-06T12:05:19;711.50;;;29.73;59.18
54503;BME280;40411;50.090;21.954;2023-08-06T12:07:48;-302.31;;;30.13;58.18
54503;BME280;40411;50.090;21.954;2023-08-06T12:10:15;1048.91;;;29.55;59.57
54503;BME280;40411;50.090;21.954;2023-08-06T12:12:41;1048.59;;;29.52;59.38
54503;BME280;40411;50.090;21.954;2023-08-06T12:15:08;1387.91;;;29.58;58.51
54503;BME280;40411;50.090;21.954;2023-08-06T12:17:35;-639.63;;;30.42;58.49
54503;BME280;40411;50.090;21.954;2023-08-06T12:20:03;375.75;;;30.16;56.60
54503;BME280;40411;50.090;21.954;2023-08-06T12:22:30;377.63;;;30.43;54.98
54503;BME280;40411;50.090;21.954;2023-08-06T12:25:02;715.09;;;30.21;55.80
54503;BME280;40411;50.090;21.954;2023-08-06T12:27:37;1053.50;;;30.13;55.31
54503;BME280;40411;50.090;21.954;2023-08-06T12:30:04;-1314.38;;;31.16;55.43
54503;BME280;40411;50.090;21.954;2023-08-06T12:32:30;378.72;;;30.58;54.59
54503;BME280;40411;50.090;21.954;2023-08-06T12:34:56;-975.22;;;31.11;54.33
54503;BME280;40411;50.090;21.954;2023-08-06T12:37:22;1055.53;;;30.38;55.08
54503;BME280;40411;50.090;21.954;2023-08-06T12:39:48;1729.28;;;29.87;55.69
54503;BME280;40411;50.090;21.954;2023-08-06T12:42:14;-975.97;;;30.97;55.78
54503;BME280;40411;50.090;21.954;2023-08-06T12:44:40;376.91;;;30.33;57.00
54503;BME280;40411;50.090;21.954;2023-08-06T12:47:07;1054.16;;;30.21;56.89
54503;BME280;40411;50.090;21.954;2023-08-06T12:49:33;715.53;;;30.26;57.05
54503;BME280;40411;50.090;21.954;2023-08-06T12:51:59;2741.41;;;29.42;58.36